sensor_id;sensor_type;location;lat;lon;timestamp;pressure;altitude;pressure_sealevel;temperature;humidity
43420;BME280;29017;51.514;-0.178;2023-03-13T00:01:22;99195.94;;;13.85;100.00
43420;BME280;29017;51.514;-0.178;2023-03-13T00:03:49;99192.47;;;13.84;99.97
43420;BME280;29017;51.514;-0.178;2023-03-13T00:06:17;99191.47;;;13.85;100.00
43420;BME280;29017;51.514;-0.178;2023-03-13T00:08:44;99179.06;;;13.86;100.00
43420;BME280;29017;51.514;-0.178;2023-03-13T00:11:12;99184.91;;;13.88;99.98
43420;BME280;29017;51.514;-0.178;2023-03-13T00:13:40;99159.50;;;13.87;99.76
43420;BME280;29017;51.514;-0.178;2023-03-13T00:16:08;99157.47;;;13.89;100.00
43420;BME280;29017;51.514;-0.178;2023-03-13T00:18:36;99152.16;;;13.89;100.00
43420;BME280;29017;51.514;-0.178;2023-03-13T00:21:04;99145.69;;;13.85;99.83
43420;BME280;29017;51.514;-0.178;2023-03-13T00:23:32;99135.69;;;13.87;99.86
43420;BME280;29017;51.514;-0.178;2023-03-13T00:26:01;99135.69;;;13.87;100.00
43420;BME280;29017;51.514;-0.178;2023-03-13T00:28:29;99127.00;;;13.86;99.83
43420;BME280;29017;51.514;-0.178;2023-03-13T00:30:59;99119.84;;;13.87;100.00
43420;BME280;29017;51.514;-0.178;2023-03-13T00:33:27;99118.00;;;13.87;99.91
43420;BME280;29017;51.514;-0.178;2023-03-13T00:38:24;99100.72;;;13.91;99.76
43420;BME280;29017;51.514;-0.178;2023-03-13T00:40:57;99115.53;;;13.92;99.69
43420;BME280;29017;51.514;-0.178;2023-03-13T00:43:24;99119.59;;;13.95;99.79
43420;BME280;29017;51.514;-0.178;2023-03-13T00:45:51;99109.41;;;13.92;99.79
43420;BME280;29017;51.514;-0.178;2023-03-13T00:48:18;99106.78;;;13.92;99.80
43420;BME280;29017;51.514;-0.178;2023-03-13T00:50:46;99101.94;;;13.89;99.83
43420;BME280;29017;51.514;-0.178;2023-03-13T00:53:13;99090.53;;;13.88;100.00
43420;BME280;29017;51.514;-0.178;2023-03-13T00:58:15;99109.22;;;13.93;99.94
43420;BME280;29017;51.514;-0.178;2023-03-13T01:00:42;99101.06;;;13.95;99.75
43420;BME280;29017;51.514;-0.178;2023-03-13T01:03:09;99105.56;;;13.94;99.36
43420;BME280;29017;51.514;-0.178;2023-03-13T01:05:37;99113.94;;;13.91;99.06
43420;BME280;29017;51.514;-0.178;2023-03-13T01:08:04;99109.66;;;13.90;98.95
43420;BME280;29017;51.514;-0.178;2023-03-13T01:10:31;99087.69;;;13.90;99.08
43420;BME280;29017;51.514;-0.178;2023-03-13T01:12:58;99088.72;;;13.89;99.01
43420;BME280;29017;51.514;-0.178;2023-03-13T01:15:25;99061.47;;;13.88;99.14
43420;BME280;29017;51.514;-0.178;2023-03-13T01:17:52;99079.16;;;13.88;99.01
43420;BME280;29017;51.514;-0.178;2023-03-13T01:20:19;99100.53;;;13.86;99.08
43420;BME280;29017;51.514;-0.178;2023-03-13T01:22:46;99086.88;;;13.89;99.23
43420;BME280;29017;51.514;-0.178;2023-03-13T01:25:13;99091.16;;;13.90;99.44
43420;BME280;29017;51.514;-0.178;2023-03-13T01:27:41;99093.56;;;13.92;99.53
43420;BME280;29017;51.514;-0.178;2023-03-13T01:30:08;99097.00;;;13.92;99.76
43420;BME280;29017;51.514;-0.178;2023-03-13T01:32:35;99101.50;;;13.92;99.77
43420;BME280;29017;51.514;-0.178;2023-03-13T01:35:03;99090.91;;;13.92;100.00
43420;BME280;29017;51.514;-0.178;2023-03-13T01:37:30;99088.88;;;13.94;100.00
43420;BME280;29017;51.514;-0.178;2023-03-13T01:39:57;99081.75;;;13.94;100.00
43420;BME280;29017;51.514;-0.178;2023-03-13T01:42:24;99081.16;;;13.92;100.00
43420;BME280;29017;51.514;-0.178;2023-03-13T01:44:53;99047.81;;;13.91;100.00
43420;BME280;29017;51.514;-0.178;2023-03-13T01:47:21;99061.63;;;13.93;100.00
43420;BME280;29017;51.514;-0.178;2023-03-13T01:49:48;99036.81;;;13.94;100.00
43420;BME280;29017;51.514;-0.178;2023-03-13T01:54:49;99052.06;;;13.92;100.00
43420;BME280;29017;51.514;-0.178;2023-03-13T01:59:50;99034.38;;;13.93;99.96
43420;BME280;29017;51.514;-0.178;2023-03-13T02:02:18;99028.66;;;13.96;99.69
43420;BME280;29017;51.514;-0.178;2023-03-13T02:04:46;99006.44;;;13.97;99.49
43420;BME280;29017;51.514;-0.178;2023-03-13T02:07:16;99008.31;;;13.96;99.32
43420;BME280;29017;51.514;-0.178;2023-03-13T02:09:44;99021.09;;;13.99;99.44
43420;BME280;29017;51.514;-0.178;2023-03-13T02:12:16;99007.88;;;13.99;99.25
43420;BME280;29017;51.514;-0.178;2023-03-13T02:14:45;99011.31;;;14.00;99.17
43420;BME280;29017;51.514;-0.178;2023-03-13T02:17:12;99013.16;;;13.99;99.37
43420;BME280;29017;51.514;-0.178;2023-03-13T02:27:10;99007.88;;;13.99;99.59
43420;BME280;29017;51.514;-0.178;2023-03-13T02:29:37;99001.91;;;14.04;100.00
43420;BME280;29017;51.514;-0.178;2023-03-13T02:32:04;98987.53;;;14.00;100.00
43420;BME280;29017;51.514;-0.178;2023-03-13T02:34:32;98990.97;;;14.00;100.00
43420;BME280;29017;51.514;-0.178;2023-03-13T02:37:01;98982.22;;;14.00;100.00
43420;BME280;29017;51.514;-0.178;2023-03-13T02:39:28;98989.94;;;14.01;100.00
43420;BME280;29017;51.514;-0.178;2023-03-13T02:41:57;98971.19;;;14.03;100.00
43420;BME280;29017;51.514;-0.178;2023-03-13T02:44:25;98975.47;;;14.04;100.00
43420;BME280;29017;51.514;-0.178;2023-03-13T02:46:52;98968.56;;;14.03;100.00
43420;BME280;29017;51.514;-0.178;2023-03-13T02:51:50;98963.50;;;14.01;100.00
43420;BME280;29017;51.514;-0.178;2023-03-13T02:54:19;98961.06;;;14.00;100.00
43420;BME280;29017;51.514;-0.178;2023-03-13T02:56:49;98960.13;;;13.94;100.00
43420;BME280;29017;51.514;-0.178;2023-03-13T02:59:17;98945.28;;;13.93;100.00
43420;BME280;29017;51.514;-0.178;2023-03-13T03:01:44;98947.34;;;13.91;100.00
43420;BME280;29017;51.514;-0.178;2023-03-13T03:04:11;98949.19;;;13.91;100.00
43420;BME280;29017;51.514;-0.178;2023-03-13T03:06:38;98943.75;;;13.86;100.00
43420;BME280;29017;51.514;-0.178;2023-03-13T03:09:05;98939.28;;;13.86;100.00
43420;BME280;29017;51.514;-0.178;2023-03-13T03:11:32;98946.16;;;13.87;100.00
43420;BME280;29017;51.514;-0.178;2023-03-13T03:13:59;98936.03;;;13.84;100.00
43420;BME280;29017;51.514;-0.178;2023-03-13T03:16:26;98936.03;;;13.84;100.00
43420;BME280;29017;51.514;-0.178;2023-03-13T03:18:53;98929.94;;;13.84;100.00
43420;BME280;29017;51.514;-0.178;2023-03-13T03:21:20;98928.91;;;13.85;100.00
43420;BME280;29017;51.514;-0.178;2023-03-13T03:23:49;98933.19;;;13.86;100.00
43420;BME280;29017;51.514;-0.178;2023-03-13T03:26:16;98929.72;;;13.85;100.00
43420;BME280;29017;51.514;-0.178;2023-03-13T03:28:43;98929.94;;;13.84;100.00
43420;BME280;29017;51.514;-0.178;2023-03-13T03:31:12;98921.19;;;13.83;100.00
43420;BME280;29017;51.514;-0.178;2023-03-13T03:33:39;98916.94;;;13.82;100.00
43420;BME280;29017;51.514;-0.178;2023-03-13T03:36:07;98914.75;;;13.79;100.00
43420;BME280;29017;51.514;-0.178;2023-03-13T03:38:34;98920.22;;;13.78;100.00
43420;BME280;29017;51.514;-0.178;2023-03-13T03:41:02;98909.00;;;13.82;100.00
43420;BME280;29017;51.514;-0.178;2023-03-13T03:43:28;98916.34;;;13.80;100.00
43420;BME280;29017;51.514;-0.178;2023-03-13T03:45:55;98907.63;;;13.80;100.00
43420;BME280;29017;51.514;-0.178;2023-03-13T03:48:22;98910.47;;;13.78;100.00
43420;BME280;29017;51.514;-0.178;2023-03-13T03:50:49;98898.28;;;13.77;100.00
43420;BME280;29017;51.514;-0.178;2023-03-13T03:53:16;98894.63;;;13.78;100.00
43420;BME280;29017;51.514;-0.178;2023-03-13T03:55:43;98891.41;;;13.76;100.00
43420;BME280;29017;51.514;-0.178;2023-03-13T03:58:10;98896.44;;;13.78;100.00
43420;BME280;29017;51.514;-0.178;2023-03-13T04:00:37;98885.44;;;13.81;100.00
43420;BME280;29017;51.514;-0.178;2023-03-13T04:03:05;98887.41;;;13.85;100.00
43420;BME280;29017;51.514;-0.178;2023-03-13T04:05:32;98909.94;;;13.88;100.00
43420;BME280;29017;51.514;-0.178;2023-03-13T04:07:58;98891.69;;;13.86;100.00
43420;BME280;29017;51.514;-0.178;2023-03-13T04:10:25;98913.03;;;13.85;100.00
43420;BME280;29017;51.514;-0.178;2023-03-13T04:12:52;98922.00;;;13.84;100.00
43420;BME280;29017;51.514;-0.178;2023-03-13T04:15:19;98925.47;;;13.84;100.00
43420;BME280;29017;51.514;-0.178;2023-03-13T04:17:46;98917.31;;;13.86;100.00
43420;BME280;29017;51.514;-0.178;2023-03-13T04:20:13;98922.00;;;13.84;100.00
43420;BME280;29017;51.514;-0.178;2023-03-13T04:22:40;98913.03;;;13.85;100.00
43420;BME280;29017;51.514;-0.178;2023-03-13T04:25:08;98918.34;;;13.85;98.90
43420;BME280;29017;51.514;-0.178;2023-03-13T04:27:35;98910.19;;;13.86;98.56
43420;BME280;29017;51.514;-0.178;2023-03-13T04:30:02;98905.94;;;13.85;97.55
43420;BME280;29017;51.514;-0.178;2023-03-13T04:32:30;98903.84;;;13.87;97.32
43420;BME280;29017;51.514;-0.178;2023-03-13T04:34:57;98904.09;;;13.86;96.38
43420;BME280;29017;51.514;-0.178;2023-03-13T04:37:24;98889.03;;;13.86;96.11
43420;BME280;29017;51.514;-0.178;2023-03-13T04:39:51;98880.66;;;13.89;96.31
43420;BME280;29017;51.514;-0.178;2023-03-13T04:42:18;98883.09;;;13.91;95.45
43420;BME280;29017;51.514;-0.178;2023-03-13T04:44:45;98868.59;;;13.93;96.06
43420;BME280;29017;51.514;-0.178;2023-03-13T04:47:12;98864.56;;;13.91;94.99
43420;BME280;29017;51.514;-0.178;2023-03-13T04:49:39;98852.94;;;13.92;95.05
43420;BME280;29017;51.514;-0.178;2023-03-13T04:52:06;98856.19;;;13.94;95.08
43420;BME280;29017;51.514;-0.178;2023-03-13T04:54:33;98848.59;;;13.97;94.50
43420;BME280;29017;51.514;-0.178;2023-03-13T04:57:00;98857.34;;;13.98;94.73
43420;BME280;29017;51.514;-0.178;2023-03-13T04:59:26;98843.31;;;13.97;94.59
43420;BME280;29017;51.514;-0.178;2023-03-13T05:01:53;98824.00;;;13.97;94.54
43420;BME280;29017;51.514;-0.178;2023-03-13T05:04:20;98809.63;;;13.93;94.48
43420;BME280;29017;51.514;-0.178;2023-03-13T05:06:47;98823.84;;;13.92;94.60
43420;BME280;29017;51.514;-0.178;2023-03-13T05:09:14;98831.78;;;13.92;94.75
43420;BME280;29017;51.514;-0.178;2023-03-13T05:11:41;98832.59;;;13.92;94.61
43420;BME280;29017;51.514;-0.178;2023-03-13T05:14:08;98849.13;;;13.88;94.54
43420;BME280;29017;51.514;-0.178;2023-03-13T05:16:38;98843.44;;;13.91;95.21
43420;BME280;29017;51.514;-0.178;2023-03-13T05:19:05;98837.47;;;13.95;95.49
43420;BME280;29017;51.514;-0.178;2023-03-13T05:21:32;98826.63;;;13.97;95.71
43420;BME280;29017;51.514;-0.178;2023-03-13T05:23:58;98825.84;;;13.96;95.95
43420;BME280;29017;51.514;-0.178;2023-03-13T05:26:25;98839.28;;;13.95;96.03
43420;BME280;29017;51.514;-0.178;2023-03-13T05:28:52;98836.88;;;13.93;95.68
43420;BME280;29017;51.514;-0.178;2023-03-13T05:31:19;98853.63;;;13.87;94.75
43420;BME280;29017;51.514;-0.178;2023-03-13T05:33:46;98842.47;;;13.85;93.79
43420;BME280;29017;51.514;-0.178;2023-03-13T05:36:13;98827.03;;;13.82;92.76
43420;BME280;29017;51.514;-0.178;2023-03-13T05:38:40;98819.91;;;13.83;92.83
43420;BME280;29017;51.514;-0.178;2023-03-13T05:41:07;98827.28;;;13.81;92.11
43420;BME280;29017;51.514;-0.178;2023-03-13T05:43:34;98823.84;;;13.80;91.63
43420;BME280;29017;51.514;-0.178;2023-03-13T05:46:01;98820.16;;;13.81;90.90
43420;BME280;29017;51.514;-0.178;2023-03-13T05:48:28;98824.66;;;13.81;90.07
43420;BME280;29017;51.514;-0.178;2023-03-13T05:50:55;98816.25;;;13.84;89.92
43420;BME280;29017;51.514;-0.178;2023-03-13T05:53:22;98823.16;;;13.85;89.17
43420;BME280;29017;51.514;-0.178;2023-03-13T05:55:48;98816.84;;;13.86;87.77
43420;BME280;29017;51.514;-0.178;2023-03-13T05:58:15;98824.31;;;13.89;88.05
43420;BME280;29017;51.514;-0.178;2023-03-13T06:00:42;98831.78;;;13.92;88.45
43420;BME280;29017;51.514;-0.178;2023-03-13T06:03:10;98823.78;;;13.98;88.65
43420;BME280;29017;51.514;-0.178;2023-03-13T06:05:42;98829.06;;;13.98;87.03
43420;BME280;29017;51.514;-0.178;2023-03-13T06:08:09;98826.63;;;13.97;86.21
43420;BME280;29017;51.514;-0.178;2023-03-13T06:10:36;98825.63;;;13.98;85.83
43420;BME280;29017;51.514;-0.178;2023-03-13T06:13:03;98819.09;;;14.00;85.85
43420;BME280;29017;51.514;-0.178;2023-03-13T06:18:15;98823.34;;;14.01;84.79
43420;BME280;29017;51.514;-0.178;2023-03-13T06:20:42;98825.41;;;13.99;84.61
43420;BME280;29017;51.514;-0.178;2023-03-13T06:23:09;98807.03;;;14.04;85.30
43420;BME280;29017;51.514;-0.178;2023-03-13T06:25:36;98809.44;;;14.06;85.56
43420;BME280;29017;51.514;-0.178;2023-03-13T06:28:04;98823.47;;;14.06;85.26
43420;BME280;29017;51.514;-0.178;2023-03-13T06:30:31;98816.91;;;14.09;85.35
43420;BME280;29017;51.514;-0.178;2023-03-13T06:32:58;98813.47;;;14.08;85.71
43420;BME280;29017;51.514;-0.178;2023-03-13T06:35:25;98822.44;;;14.07;85.95
43420;BME280;29017;51.514;-0.178;2023-03-13T06:37:52;98800.72;;;14.05;85.44
43420;BME280;29017;51.514;-0.178;2023-03-13T06:40:20;98806.69;;;14.01;84.36
43420;BME280;29017;51.514;-0.178;2023-03-13T06:42:47;98810.13;;;14.01;84.18
43420;BME280;29017;51.514;-0.178;2023-03-13T06:45:14;98787.69;;;14.04;83.18
43420;BME280;29017;51.514;-0.178;2023-03-13T06:47:41;98790.94;;;14.06;83.41
43420;BME280;29017;51.514;-0.178;2023-03-13T06:50:08;98783.44;;;14.03;82.65
43420;BME280;29017;51.514;-0.178;2023-03-13T06:52:35;98790.94;;;14.06;83.47
43420;BME280;29017;51.514;-0.178;2023-03-13T06:55:09;98792.09;;;14.10;83.87
43420;BME280;29017;51.514;-0.178;2023-03-13T06:57:37;98767.47;;;14.09;83.42
43420;BME280;29017;51.514;-0.178;2023-03-13T07:00:04;98791.50;;;14.08;82.95
43420;BME280;29017;51.514;-0.178;2023-03-13T07:02:32;98793.13;;;14.09;83.72
43420;BME280;29017;51.514;-0.178;2023-03-13T07:04:59;98788.41;;;14.11;83.67
43420;BME280;29017;51.514;-0.178;2023-03-13T07:07:31;98771.16;;;14.08;83.51
43420;BME280;29017;51.514;-0.178;2023-03-13T07:09:59;98775.41;;;14.09;83.80
43420;BME280;29017;51.514;-0.178;2023-03-13T07:12:27;98769.31;;;14.09;82.94
43420;BME280;29017;51.514;-0.178;2023-03-13T07:14:54;98768.28;;;14.10;83.21
43420;BME280;29017;51.514;-0.178;2023-03-13T07:17:25;98758.88;;;14.14;83.89
43420;BME280;29017;51.514;-0.178;2023-03-13T07:19:52;98765.91;;;14.20;83.45
43420;BME280;29017;51.514;-0.178;2023-03-13T07:22:20;98749.34;;;14.25;83.00
43420;BME280;29017;51.514;-0.178;2023-03-13T07:24:47;98754.63;;;14.25;82.06
43420;BME280;29017;51.514;-0.178;2023-03-13T07:27:15;98749.34;;;14.25;82.29
43420;BME280;29017;51.514;-0.178;2023-03-13T07:29:43;98745.88;;;14.24;81.08
43420;BME280;29017;51.514;-0.178;2023-03-13T07:32:10;98749.94;;;14.27;81.47
43420;BME280;29017;51.514;-0.178;2023-03-13T07:34:38;98741.53;;;14.30;80.63
43420;BME280;29017;51.514;-0.178;2023-03-13T07:37:05;98744.16;;;14.30;79.60
43420;BME280;29017;51.514;-0.178;2023-03-13T07:39:32;98751.88;;;14.31;79.41
43420;BME280;29017;51.514;-0.178;2023-03-13T07:41:59;98751.41;;;14.34;80.20
43420;BME280;29017;51.514;-0.178;2023-03-13T07:44:26;98735.91;;;14.38;79.21
43420;BME280;29017;51.514;-0.178;2023-03-13T07:46:53;98728.22;;;14.36;79.02
43420;BME280;29017;51.514;-0.178;2023-03-13T07:49:20;98731.28;;;14.33;78.28
43420;BME280;29017;51.514;-0.178;2023-03-13T07:51:47;98730.63;;;14.38;78.58
43420;BME280;29017;51.514;-0.178;2023-03-13T07:54:16;98717.19;;;14.39;78.13
43420;BME280;29017;51.514;-0.178;2023-03-13T07:56:44;98737.66;;;14.44;77.92
43420;BME280;29017;51.514;-0.178;2023-03-13T07:59:11;98736.41;;;14.46;78.49
43420;BME280;29017;51.514;-0.178;2023-03-13T08:01:38;98727.19;;;14.49;78.26
43420;BME280;29017;51.514;-0.178;2023-03-13T08:04:05;98721.09;;;14.48;77.99
43420;BME280;29017;51.514;-0.178;2023-03-13T08:06:33;98726.38;;;14.48;77.46
43420;BME280;29017;51.514;-0.178;2023-03-13T08:09:02;98721.09;;;14.48;77.76
43420;BME280;29017;51.514;-0.178;2023-03-13T08:11:30;98723.97;;;14.47;77.91
43420;BME280;29017;51.514;-0.178;2023-03-13T08:13:58;98731.09;;;14.46;78.37
43420;BME280;29017;51.514;-0.178;2023-03-13T08:16:26;98742.59;;;14.40;77.88
43420;BME280;29017;51.514;-0.178;2023-03-13T08:18:55;98740.19;;;14.39;78.52
43420;BME280;29017;51.514;-0.178;2023-03-13T08:21:23;98746.50;;;14.38;78.62
43420;BME280;29017;51.514;-0.178;2023-03-13T08:23:53;98737.53;;;14.39;79.19
43420;BME280;29017;51.514;-0.178;2023-03-13T08:26:22;98724.56;;;14.37;79.28
43420;BME280;29017;51.514;-0.178;2023-03-13T08:28:51;98711.50;;;14.36;78.96
43420;BME280;29017;51.514;-0.178;2023-03-13T08:31:20;98734.34;;;14.37;79.46
43420;BME280;29017;51.514;-0.178;2023-03-13T08:33:47;98742.69;;;14.34;79.45
43420;BME280;29017;51.514;-0.178;2023-03-13T08:36:17;98730.72;;;14.31;78.74
43420;BME280;29017;51.514;-0.178;2023-03-13T08:38:45;98724.63;;;14.31;78.50
43420;BME280;29017;51.514;-0.178;2023-03-13T08:41:15;98738.66;;;14.31;78.42
43420;BME280;29017;51.514;-0.178;2023-03-13T08:43:42;98736.22;;;14.30;78.52
43420;BME280;29017;51.514;-0.178;2023-03-13T08:46:09;98716.22;;;14.34;79.34
43420;BME280;29017;51.514;-0.178;2023-03-13T08:48:37;98729.44;;;14.34;78.46
43420;BME280;29017;51.514;-0.178;2023-03-13T08:51:05;98713.00;;;14.32;78.50
43420;BME280;29017;51.514;-0.178;2023-03-13T08:53:33;98707.06;;;14.36;78.31
43420;BME280;29017;51.514;-0.178;2023-03-13T08:56:01;98719.25;;;14.37;78.30
43420;BME280;29017;51.514;-0.178;2023-03-13T08:58:28;98698.09;;;14.37;77.59
43420;BME280;29017;51.514;-0.178;2023-03-13T09:03:26;98708.53;;;14.44;76.90
43420;BME280;29017;51.514;-0.178;2023-03-13T09:05:53;98705.78;;;14.50;77.55
43420;BME280;29017;51.514;-0.178;2023-03-13T09:08:22;98690.03;;;14.55;78.13
43420;BME280;29017;51.514;-0.178;2023-03-13T09:13:19;98696.56;;;14.65;76.54
43420;BME280;29017;51.514;-0.178;2023-03-13T09:15:52;98705.66;;;14.69;76.06
43420;BME280;29017;51.514;-0.178;2023-03-13T09:18:19;98698.19;;;14.77;76.89
43420;BME280;29017;51.514;-0.178;2023-03-13T09:20:50;98686.28;;;14.91;76.34
43420;BME280;29017;51.514;-0.178;2023-03-13T09:23:17;98696.75;;;14.98;74.91
43420;BME280;29017;51.514;-0.178;2023-03-13T09:25:45;98692.13;;;15.05;74.49
43420;BME280;29017;51.514;-0.178;2023-03-13T09:28:12;98685.66;;;15.13;74.04
43420;BME280;29017;51.514;-0.178;2023-03-13T09:30:39;98681.28;;;15.18;73.68
43420;BME280;29017;51.514;-0.178;2023-03-13T09:33:06;98679.75;;;15.22;73.68
43420;BME280;29017;51.514;-0.178;2023-03-13T09:35:33;98685.38;;;15.26;73.56
43420;BME280;29017;51.514;-0.178;2023-03-13T09:38:00;98677.03;;;15.34;73.15
43420;BME280;29017;51.514;-0.178;2023-03-13T09:40:28;98677.63;;;15.36;72.65
43420;BME280;29017;51.514;-0.178;2023-03-13T09:42:56;98696.59;;;15.45;71.91
43420;BME280;29017;51.514;-0.178;2023-03-13T09:47:55;98686.69;;;15.52;72.73
43420;BME280;29017;51.514;-0.178;2023-03-13T09:50:26;98687.81;;;15.56;72.36
43420;BME280;29017;51.514;-0.178;2023-03-13T09:52:56;98694.81;;;15.62;71.74
43420;BME280;29017;51.514;-0.178;2023-03-13T09:55:27;98696.53;;;15.68;72.13
43420;BME280;29017;51.514;-0.178;2023-03-13T10:00:29;98691.38;;;15.61;71.81
43420;BME280;29017;51.514;-0.178;2023-03-13T10:05:26;98705.56;;;15.55;70.47
43420;BME280;29017;51.514;-0.178;2023-03-13T10:07:57;98684.72;;;15.47;70.82
43420;BME280;29017;51.514;-0.178;2023-03-13T10:13:02;98686.59;;;15.35;71.26
43420;BME280;29017;51.514;-0.178;2023-03-13T10:20:37;98684.63;;;15.42;71.61
43420;BME280;29017;51.514;-0.178;2023-03-13T10:23:07;98702.38;;;15.41;70.91
43420;BME280;29017;51.514;-0.178;2023-03-13T10:25:39;98689.78;;;15.49;70.83
43420;BME280;29017;51.514;-0.178;2023-03-13T10:30:37;98703.03;;;15.49;69.78
43420;BME280;29017;51.514;-0.178;2023-03-13T10:35:40;98702.25;;;15.48;70.04
43420;BME280;29017;51.514;-0.178;2023-03-13T10:40:38;98713.28;;;15.45;70.14
43420;BME280;29017;51.514;-0.178;2023-03-13T10:43:12;98722.28;;;15.44;69.74
43420;BME280;29017;51.514;-0.178;2023-03-13T10:45:40;98712.75;;;15.43;70.33
43420;BME280;29017;51.514;-0.178;2023-03-13T10:50:40;98725.03;;;15.49;69.82
43420;BME280;29017;51.514;-0.178;2023-03-13T10:53:19;98711.00;;;15.49;69.08
43420;BME280;29017;51.514;-0.178;2023-03-13T10:55:47;98719.50;;;15.51;70.06
43420;BME280;29017;51.514;-0.178;2023-03-13T10:58:17;98711.00;;;15.49;69.15
43420;BME280;29017;51.514;-0.178;2023-03-13T11:00:45;98731.75;;;15.52;71.13
43420;BME280;29017;51.514;-0.178;2023-03-13T11:05:53;98722.16;;;15.62;69.81
43420;BME280;29017;51.514;-0.178;2023-03-13T11:08:22;98716.94;;;15.67;69.34
43420;BME280;29017;51.514;-0.178;2023-03-13T11:10:51;98712.84;;;15.76;68.92
43420;BME280;29017;51.514;-0.178;2023-03-13T11:16:03;98714.47;;;15.77;67.15
43420;BME280;29017;51.514;-0.178;2023-03-13T11:21:04;98715.03;;;15.79;67.49
43420;BME280;29017;51.514;-0.178;2023-03-13T11:23:44;98723.84;;;15.85;67.96
43420;BME280;29017;51.514;-0.178;2023-03-13T11:28:46;98731.34;;;15.88;66.81
43420;BME280;29017;51.514;-0.178;2023-03-13T11:38:58;98704.09;;;15.93;66.67
43420;BME280;29017;51.514;-0.178;2023-03-13T12:01:45;98678.56;;;16.03;66.83
43420;BME280;29017;51.514;-0.178;2023-03-13T12:06:49;98688.13;;;16.04;65.97
43420;BME280;29017;51.514;-0.178;2023-03-13T12:09:21;98676.06;;;15.97;66.72
43420;BME280;29017;51.514;-0.178;2023-03-13T12:14:30;98668.09;;;15.97;65.81
43420;BME280;29017;51.514;-0.178;2023-03-13T12:17:01;98651.94;;;15.98;66.44
43420;BME280;29017;51.514;-0.178;2023-03-13T12:22:00;98658.88;;;15.99;65.51
43420;BME280;29017;51.514;-0.178;2023-03-13T12:24:35;98647.91;;;15.96;66.00
43420;BME280;29017;51.514;-0.178;2023-03-13T12:29:38;98647.44;;;15.99;66.80
43420;BME280;29017;51.514;-0.178;2023-03-13T12:32:11;98651.13;;;15.98;66.03
43420;BME280;29017;51.514;-0.178;2023-03-13T12:37:15;98632.50;;;15.93;66.40
43420;BME280;29017;51.514;-0.178;2023-03-13T12:44:56;98635.28;;;15.86;66.11
43420;BME280;29017;51.514;-0.178;2023-03-13T13:00:06;98626.44;;;15.80;67.67
43420;BME280;29017;51.514;-0.178;2023-03-13T13:02:39;98612.97;;;15.82;67.29
43420;BME280;29017;51.514;-0.178;2023-03-13T13:07:51;98617.78;;;15.85;67.39
43420;BME280;29017;51.514;-0.178;2023-03-13T13:10:37;98635.41;;;15.74;67.43
43420;BME280;29017;51.514;-0.178;2023-03-13T13:15:41;98631.91;;;15.57;67.46
43420;BME280;29017;51.514;-0.178;2023-03-13T13:20:44;98618.69;;;15.46;68.45
43420;BME280;29017;51.514;-0.178;2023-03-13T13:25:54;98621.97;;;15.36;69.42
43420;BME280;29017;51.514;-0.178;2023-03-13T13:31:43;98616.34;;;15.32;70.01
43420;BME280;29017;51.514;-0.178;2023-03-13T13:33:56;98601.25;;;15.33;68.75
43420;BME280;29017;51.514;-0.178;2023-03-13T13:36:26;98609.13;;;15.28;68.72
43420;BME280;29017;51.514;-0.178;2023-03-13T13:38:54;98597.28;;;15.19;68.50
43420;BME280;29017;51.514;-0.178;2023-03-13T13:41:24;98592.22;;;15.17;68.01
43420;BME280;29017;51.514;-0.178;2023-03-13T13:51:22;98565.25;;;15.20;68.32
43420;BME280;29017;51.514;-0.178;2023-03-13T14:01:27;98547.59;;;15.26;69.24
43420;BME280;29017;51.514;-0.178;2023-03-13T14:06:26;98543.28;;;15.36;68.39
43420;BME280;29017;51.514;-0.178;2023-03-13T14:08:59;98540.53;;;15.31;68.12
43420;BME280;29017;51.514;-0.178;2023-03-13T14:11:32;98544.81;;;15.32;68.89
43420;BME280;29017;51.514;-0.178;2023-03-13T14:14:07;98549.59;;;15.35;68.43
43420;BME280;29017;51.514;-0.178;2023-03-13T14:16:36;98539.31;;;15.39;68.31
43420;BME280;29017;51.514;-0.178;2023-03-13T14:19:04;98534.59;;;15.41;68.79
43420;BME280;29017;51.514;-0.178;2023-03-13T14:21:32;98520.63;;;15.46;68.56
43420;BME280;29017;51.514;-0.178;2023-03-13T14:24:02;98527.03;;;15.50;68.21
43420;BME280;29017;51.514;-0.178;2023-03-13T14:26:40;98522.19;;;15.58;68.30
43420;BME280;29017;51.514;-0.178;2023-03-13T14:29:14;98519.03;;;15.61;67.43
43420;BME280;29017;51.514;-0.178;2023-03-13T14:34:24;98518.88;;;15.68;67.85
43420;BME280;29017;51.514;-0.178;2023-03-13T14:36:55;98510.84;;;15.63;68.15
43420;BME280;29017;51.514;-0.178;2023-03-13T14:39:43;98514.63;;;15.67;67.99
43420;BME280;29017;51.514;-0.178;2023-03-13T14:42:11;98510.94;;;15.68;67.64
43420;BME280;29017;51.514;-0.178;2023-03-13T14:44:39;98511.53;;;15.75;67.50
43420;BME280;29017;51.514;-0.178;2023-03-13T14:49:40;98514.53;;;15.78;67.84
43420;BME280;29017;51.514;-0.178;2023-03-13T14:57:12;98522.09;;;15.53;67.98
43420;BME280;29017;51.514;-0.178;2023-03-13T14:59:41;98515.09;;;15.47;68.31
43420;BME280;29017;51.514;-0.178;2023-03-13T15:07:09;98533.63;;;15.47;69.06
43420;BME280;29017;51.514;-0.178;2023-03-13T15:09:40;98524.56;;;15.43;69.66
43420;BME280;29017;51.514;-0.178;2023-03-13T15:12:11;98517.66;;;15.42;69.66
43420;BME280;29017;51.514;-0.178;2023-03-13T15:14:43;98527.22;;;15.43;69.99
43420;BME280;29017;51.514;-0.178;2023-03-13T15:17:13;98505.75;;;15.45;69.31
43420;BME280;29017;51.514;-0.178;2023-03-13T15:19:42;98509.47;;;15.44;69.09
43420;BME280;29017;51.514;-0.178;2023-03-13T15:22:11;98503.03;;;15.39;69.14
43420;BME280;29017;51.514;-0.178;2023-03-13T15:24:38;98505.13;;;15.37;69.11
43420;BME280;29017;51.514;-0.178;2023-03-13T15:29:37;98496.22;;;15.27;68.58
43420;BME280;29017;51.514;-0.178;2023-03-13T15:32:04;98480.47;;;15.20;68.35
43420;BME280;29017;51.514;-0.178;2023-03-13T15:34:31;98483.94;;;15.21;68.31
43420;BME280;29017;51.514;-0.178;2023-03-13T15:37:00;98474.44;;;15.25;68.25
43420;BME280;29017;51.514;-0.178;2023-03-13T15:39:27;98456.25;;;15.28;68.45
43420;BME280;29017;51.514;-0.178;2023-03-13T15:41:55;98440.97;;;15.35;68.50
43420;BME280;29017;51.514;-0.178;2023-03-13T15:44:28;98450.59;;;15.41;67.62